createdAt,value
2016-03-02T00:00:54.793Z,44.37
2016-03-02T00:01:54.859Z,44.27
2016-03-02T00:02:54.893Z,44.27
2016-03-02T00:03:54.958Z,44.09
2016-03-02T00:04:55.007Z,43.99
2016-03-02T00:05:55.057Z,43.99
2016-03-02T00:06:55.107Z,44.09
2016-03-02T00:07:55.156Z,44.18
2016-03-02T00:08:55.222Z,44.37
2016-03-02T00:09:55.255Z,43.99
2016-03-02T00:10:55.305Z,44.37
2016-03-02T00:11:55.354Z,44.18
2016-03-02T00:12:55.404Z,44.09
2016-03-02T00:13:55.453Z,44.18
2016-03-02T00:14:55.519Z,44.27
2016-03-02T00:15:55.553Z,44.66
2016-03-02T00:16:55.618Z,44.18
2016-03-02T00:17:55.667Z,44.37
2016-03-02T00:18:55.717Z,44.09
2016-03-02T00:19:55.752Z,44.47
2016-03-02T00:20:55.816Z,43.99
2016-03-02T00:21:55.865Z,44.18
2016-03-02T00:22:55.916Z,44.37
2016-03-02T00:23:55.965Z,44.47
2016-03-02T00:24:56.015Z,44.09
2016-03-02T00:25:56.080Z,44.18
2016-03-02T00:26:56.113Z,43.99
2016-03-02T00:27:56.179Z,44.47
2016-03-02T00:28:56.212Z,44.18
2016-03-02T00:29:56.279Z,44.18
2016-03-02T00:30:56.327Z,44.09
2016-03-02T00:31:56.377Z,44.56
2016-03-02T00:32:56.426Z,44.47
2016-03-02T00:33:56.476Z,44.37
2016-03-02T00:34:56.526Z,44.56
2016-03-02T00:35:56.576Z,44.27
2016-03-02T00:36:56.626Z,44.56
2016-03-02T00:37:56.675Z,44.66
2016-03-02T00:38:56.739Z,44.76
2016-03-02T00:39:56.774Z,44.66
2016-03-02T00:40:56.823Z,44.76
2016-03-02T00:41:56.889Z,44.66
2016-03-02T00:42:56.938Z,44.66
2016-03-02T00:43:56.987Z,44.56
2016-03-02T00:44:57.036Z,44.47
2016-03-02T00:45:57.102Z,44.56
2016-03-02T00:46:57.136Z,44.56
2016-03-02T00:47:57.186Z,44.76
2016-03-02T00:48:57.235Z,44.76
2016-03-02T00:49:57.285Z,44.85
2016-03-02T00:50:57.350Z,44.66
2016-03-02T00:51:57.383Z,44.47
2016-03-02T00:52:57.449Z,44.66
2016-03-02T00:53:57.482Z,44.85
2016-03-02T00:54:57.549Z,44.76
2016-03-02T00:55:57.598Z,44.76
2016-03-02T00:56:57.647Z,44.76
2016-03-02T00:57:57.697Z,44.76
2016-03-02T00:58:57.746Z,44.76
2016-03-02T00:59:57.796Z,44.76
2016-03-02T01:00:57.846Z,44.95
2016-03-02T01:01:57.911Z,44.85
2016-03-02T01:02:57.960Z,44.76
2016-03-02T01:03:57.994Z,44.66
2016-03-02T01:04:58.060Z,45.04
2016-03-02T01:05:58.109Z,44.66
2016-03-02T01:06:58.159Z,45.14
2016-03-02T01:07:58.239Z,44.85
2016-03-02T01:08:58.258Z,44.95
2016-03-02T01:09:58.307Z,45.04
2016-03-02T01:10:58.372Z,45.04
2016-03-02T01:11:58.407Z,44.95
2016-03-02T01:12:58.472Z,44.95
2016-03-02T01:13:58.505Z,45.14
2016-03-02T01:14:58.555Z,45.23
2016-03-02T01:15:58.605Z,45.14
2016-03-02T01:16:58.670Z,44.95
2016-03-02T01:17:58.704Z,45.04
2016-03-02T01:18:58.753Z,45.04
2016-03-02T01:19:58.803Z,44.85
2016-03-02T01:20:58.868Z,45.14
2016-03-02T01:21:58.918Z,45.04
2016-03-02T01:22:58.983Z,44.76
2016-03-02T01:23:59.016Z,45.14
2016-03-02T01:24:59.066Z,44.85
2016-03-02T01:25:59.116Z,45.14
2016-03-02T01:26:59.165Z,44.85
2016-03-02T01:27:59.215Z,45.04
2016-03-02T01:28:59.265Z,44.95
2016-03-02T01:29:59.330Z,44.95
2016-03-02T01:30:59.379Z,44.95
2016-03-02T01:31:59.413Z,44.95
2016-03-02T01:32:59.463Z,44.76
2016-03-02T01:33:59.528Z,44.85
2016-03-02T01:34:59.578Z,44.66
2016-03-02T01:35:59.627Z,45.04
2016-03-02T01:36:59.677Z,44.76
2016-03-02T01:37:59.726Z,45.14
2016-03-02T01:38:59.776Z,45.04
2016-03-02T01:39:59.826Z,44.85
2016-03-02T01:40:59.875Z,45.23
2016-03-02T01:41:59.925Z,45.52
2016-03-02T01:42:59.975Z,45.72
2016-03-02T01:44:00.039Z,45.14
2016-03-02T01:45:00.073Z,45.23
2016-03-02T01:46:00.138Z,45.04
2016-03-02T01:47:00.173Z,44.85
2016-03-02T01:48:00.238Z,45.04
2016-03-02T01:49:00.287Z,44.85
2016-03-02T01:50:00.337Z,45.04
2016-03-02T01:51:00.386Z,45.04
2016-03-02T01:52:00.435Z,45.23
2016-03-02T01:53:00.486Z,45.04
2016-03-02T01:54:00.535Z,45.33
2016-03-02T01:55:00.585Z,45.23
2016-03-02T01:56:00.634Z,45.14
2016-03-02T01:57:00.683Z,45.43
2016-03-02T01:58:00.749Z,44.85
2016-03-02T01:59:00.782Z,45.04
2016-03-02T02:00:00.833Z,45.23
2016-03-02T02:01:00.898Z,45.14
2016-03-02T02:02:00.946Z,45.33
2016-03-02T02:03:00.996Z,45.23
2016-03-02T02:04:01.046Z,45.52
2016-03-02T02:05:01.096Z,45.23
2016-03-02T02:06:01.155Z,45.33
2016-03-02T02:07:01.205Z,45.43
2016-03-02T02:08:01.239Z,45.21
2016-03-02T02:09:01.288Z,45.14
2016-03-02T02:10:01.353Z,45.04
2016-03-02T02:11:01.387Z,45.43
2016-03-02T02:12:01.452Z,45.33
2016-03-02T02:13:01.502Z,45.33
2016-03-02T02:14:01.552Z,45.23
2016-03-02T02:15:01.602Z,45.43
2016-03-02T02:16:01.666Z,45.14
2016-03-02T02:17:01.700Z,45.14
2016-03-02T02:18:01.750Z,45.33
2016-03-02T02:19:01.815Z,45.52
2016-03-02T02:20:01.849Z,45.23
2016-03-02T02:21:01.899Z,45.14
2016-03-02T02:22:01.949Z,45.23
2016-03-02T02:23:02.013Z,45.23
2016-03-02T02:24:02.063Z,45.12
2016-03-02T02:25:02.113Z,45.14
2016-03-02T02:26:02.162Z,45.52
2016-03-02T02:27:02.212Z,45.23
2016-03-02T02:28:02.262Z,45.23
2016-03-02T02:29:02.373Z,45.23
2016-03-02T02:30:02.360Z,45.14
2016-03-02T02:31:02.425Z,45.23
2016-03-02T02:32:02.460Z,45.21
2016-03-02T02:33:02.525Z,45.52
2016-03-02T02:34:02.559Z,45.43
2016-03-02T02:35:02.624Z,45.14
2016-03-02T02:36:02.673Z,45.12
2016-03-02T02:37:02.706Z,45.33
2016-03-02T02:38:02.789Z,45.23
2016-03-02T02:39:02.822Z,46.29
2016-03-02T02:40:02.872Z,45.14
2016-03-02T02:41:02.921Z,46.08
2016-03-02T02:42:02.970Z,45.43
2016-03-02T02:43:03.020Z,45.72
2016-03-02T02:44:03.085Z,46.39
2016-03-02T02:45:03.120Z,46.19
2016-03-02T02:46:03.185Z,46.77
2016-03-02T02:47:03.218Z,46.19
2016-03-02T02:48:03.283Z,45.9
2016-03-02T02:49:03.318Z,46.29
2016-03-02T02:50:03.383Z,45.81
2016-03-02T02:51:03.432Z,46
2016-03-02T02:52:03.466Z,46.19
2016-03-02T02:53:03.516Z,46.77
2016-03-02T02:54:03.581Z,46.1
2016-03-02T02:55:03.631Z,46
2016-03-02T02:56:03.680Z,45.9
2016-03-02T02:57:03.730Z,45.81
2016-03-02T02:58:03.779Z,45.81
2016-03-02T02:59:03.845Z,46
2016-03-02T03:00:03.894Z,45.98
2016-03-02T03:01:03.943Z,45.79
2016-03-02T03:02:03.993Z,45.98
2016-03-02T03:03:04.043Z,45.89
2016-03-02T03:04:04.076Z,46.58
2016-03-02T03:05:04.142Z,45.79
2016-03-02T03:06:04.192Z,45.9
2016-03-02T03:07:04.242Z,46
2016-03-02T03:08:04.290Z,46.1
2016-03-02T03:09:04.340Z,46.17
2016-03-02T03:10:04.390Z,45.98
2016-03-02T03:11:04.439Z,46.17
2016-03-02T03:12:04.488Z,45.89
2016-03-02T03:13:04.554Z,45.89
2016-03-02T03:14:04.588Z,46.36
2016-03-02T03:15:04.638Z,45.9
2016-03-02T03:16:04.703Z,45.98
2016-03-02T03:17:04.752Z,46.46
2016-03-02T03:18:04.786Z,45.81
2016-03-02T03:19:04.835Z,45.9
2016-03-02T03:20:04.902Z,46.08
2016-03-02T03:21:04.966Z,46.55
2016-03-02T03:22:04.999Z,46.08
2016-03-02T03:23:05.049Z,45.79
2016-03-02T03:24:05.099Z,45.79
2016-03-02T03:25:05.149Z,45.59
2016-03-02T03:26:05.199Z,46.46
2016-03-02T03:27:05.264Z,46.46
2016-03-02T03:28:05.298Z,45.89
2016-03-02T03:29:05.362Z,45.69
2016-03-02T03:30:05.397Z,45.69
2016-03-02T03:31:05.477Z,45.98
2016-03-02T03:32:05.512Z,45.98
2016-03-02T03:33:05.545Z,45.79
2016-03-02T03:34:05.610Z,46.08
2016-03-02T03:35:05.660Z,45.79
2016-03-02T03:36:05.709Z,45.89
2016-03-02T03:37:05.760Z,45.98
2016-03-02T03:38:05.809Z,45.81
2016-03-02T03:39:05.873Z,45.89
2016-03-02T03:40:05.908Z,46.19
2016-03-02T03:41:05.958Z,45.79
2016-03-02T03:42:06.006Z,45.89
2016-03-02T03:43:06.056Z,46.08
2016-03-02T03:44:06.106Z,46.46
2016-03-02T03:45:06.156Z,46.36
2016-03-02T03:46:06.205Z,46.17
2016-03-02T03:47:06.270Z,45.89
2016-03-02T03:48:06.305Z,46.75
2016-03-02T03:49:06.369Z,46.17
2016-03-02T03:50:06.403Z,45.89
2016-03-02T03:51:06.468Z,45.89
2016-03-02T03:52:06.518Z,46.08
2016-03-02T03:53:06.568Z,46.26
2016-03-02T03:54:06.632Z,46.36
2016-03-02T03:55:06.667Z,46.36
2016-03-02T03:56:06.716Z,46.36
2016-03-02T03:57:06.766Z,46.26
2016-03-02T03:58:06.816Z,46.08
2016-03-02T03:59:06.865Z,46.36
2016-03-02T04:00:06.915Z,46.08
2016-03-02T04:01:06.965Z,46.46
2016-03-02T04:02:07.015Z,46.08
2016-03-02T04:03:07.063Z,46.26
2016-03-02T04:04:07.128Z,46.26
2016-03-02T04:05:07.179Z,46.26
2016-03-02T04:06:07.228Z,46.17
2016-03-02T04:07:07.278Z,46.36
2016-03-02T04:08:07.326Z,46.46
2016-03-02T04:09:07.376Z,46.17
2016-03-02T04:10:07.426Z,46.46
2016-03-02T04:11:07.476Z,46.46
2016-03-02T04:12:07.526Z,46.65
2016-03-02T04:13:07.590Z,46.36
2016-03-02T04:14:07.624Z,46.08
2016-03-02T04:15:07.674Z,46.55
2016-03-02T04:16:07.723Z,46.17
2016-03-02T04:17:07.772Z,47.13
2016-03-02T04:18:07.823Z,46.26
2016-03-02T04:19:07.872Z,46.17
2016-03-02T04:20:07.937Z,46.46
2016-03-02T04:21:07.986Z,46.36
2016-03-02T04:22:08.036Z,46.46
2016-03-02T04:23:08.086Z,46.46
2016-03-02T04:24:08.119Z,46.55
2016-03-02T04:25:08.185Z,46.46
2016-03-02T04:26:08.235Z,46.36
2016-03-02T04:27:08.284Z,47.22
2016-03-02T04:28:08.350Z,47.22
2016-03-02T04:29:08.399Z,47.13
2016-03-02T04:30:08.449Z,47.03
2016-03-02T04:31:08.498Z,47.22
2016-03-02T04:32:08.548Z,47.22
2016-03-02T04:33:08.582Z,47.22
2016-03-02T04:34:08.631Z,47.13
2016-03-02T04:35:08.696Z,47.03
2016-03-02T04:36:08.746Z,47.03
2016-03-02T04:37:08.795Z,47.03
2016-03-02T04:38:08.829Z,47.22
2016-03-02T04:39:08.895Z,47.13
2016-03-02T04:40:08.960Z,47.13
2016-03-02T04:41:08.994Z,47.13
2016-03-02T04:42:09.043Z,47.13
2016-03-02T04:43:09.093Z,46.84
2016-03-02T04:44:09.143Z,46.84
2016-03-02T04:45:09.208Z,46.94
2016-03-02T04:46:09.258Z,46.75
2016-03-02T04:47:09.291Z,46.94
2016-03-02T04:48:09.356Z,46.84
2016-03-02T04:49:09.406Z,46.94
2016-03-02T04:50:09.439Z,46.94
2016-03-02T04:51:09.505Z,47.71
2016-03-02T04:52:09.554Z,46.84
2016-03-02T04:53:09.605Z,46.65
2016-03-02T04:54:09.654Z,46.84
2016-03-02T04:55:09.718Z,46.65
2016-03-02T04:56:09.753Z,47.03
2016-03-02T04:57:09.802Z,47.03
2016-03-02T04:58:09.852Z,46.94
2016-03-02T04:59:09.902Z,47.03
2016-03-02T05:00:09.966Z,46.84
2016-03-02T05:01:10.001Z,46.75
2016-03-02T05:02:10.065Z,46.65
2016-03-02T05:03:10.100Z,46.94
2016-03-02T05:04:10.149Z,46.65
2016-03-02T05:05:10.215Z,46.65
2016-03-02T05:06:10.248Z,46.94
2016-03-02T05:07:10.329Z,46.65
2016-03-02T05:08:10.363Z,46.94
2016-03-02T05:09:10.412Z,46.55
2016-03-02T05:10:10.463Z,46.75
2016-03-02T05:11:10.512Z,46.65
2016-03-02T05:12:10.562Z,46.55
2016-03-02T05:13:10.612Z,46.94
2016-03-02T05:14:10.661Z,47.32
2016-03-02T05:15:10.711Z,46.84
2016-03-02T05:16:10.759Z,47.32
2016-03-02T05:17:10.809Z,47.89
2016-03-02T05:18:10.874Z,47.03
2016-03-02T05:19:10.924Z,47.32
2016-03-02T05:20:10.958Z,47.42
2016-03-02T05:21:11.023Z,47.32
2016-03-02T05:22:11.072Z,47.8
2016-03-02T05:23:11.122Z,47.42
2016-03-02T05:24:11.172Z,47.22
2016-03-02T05:25:11.238Z,47.32
2016-03-02T05:26:11.271Z,47.32
2016-03-02T05:27:11.321Z,47.32
2016-03-02T05:28:11.371Z,47.22
2016-03-02T05:29:11.419Z,47.51
2016-03-02T05:30:11.469Z,47.03
2016-03-02T05:31:11.519Z,47.42
2016-03-02T05:32:11.568Z,47.32
2016-03-02T05:33:11.618Z,47.42
2016-03-02T05:34:11.683Z,47.13
2016-03-02T05:35:11.733Z,47.42
2016-03-02T05:36:11.798Z,47.13
2016-03-02T05:37:11.815Z,47.32
2016-03-02T05:38:11.882Z,47.51
2016-03-02T05:39:11.915Z,47.13
2016-03-02T05:40:11.981Z,47.13
2016-03-02T05:41:12.031Z,47.51
2016-03-02T05:42:12.079Z,47.8
2016-03-02T05:43:12.129Z,47.42
2016-03-02T05:44:12.179Z,47.42
2016-03-02T05:45:12.228Z,47.51
2016-03-02T05:46:12.278Z,47.51
2016-03-02T05:47:12.327Z,47.51
2016-03-02T05:48:12.377Z,47.51
2016-03-02T05:49:12.427Z,47.51
2016-03-02T05:50:12.475Z,47.61
2016-03-02T05:51:12.542Z,47.8
2016-03-02T05:52:12.575Z,47.8
2016-03-02T05:53:12.625Z,47.8
2016-03-02T05:54:12.675Z,47.8
2016-03-02T05:55:12.724Z,47.71
2016-03-02T05:56:12.789Z,47.8
2016-03-02T05:57:12.838Z,47.71
2016-03-02T05:58:12.888Z,47.8
2016-03-02T05:59:12.938Z,47.89
2016-03-02T06:00:12.987Z,47.89
2016-03-02T06:01:13.038Z,47.8
2016-03-02T06:02:13.087Z,47.61
2016-03-02T06:03:13.135Z,47.71
2016-03-02T06:04:13.185Z,47.8
2016-03-02T06:05:13.235Z,47.89
2016-03-02T06:06:13.410Z,47.99
2016-03-02T06:07:13.334Z,47.89
2016-03-02T06:08:13.384Z,47.71
2016-03-02T06:09:13.434Z,48.28
2016-03-02T06:10:13.483Z,48.09
2016-03-02T06:11:13.549Z,47.99
2016-03-02T06:12:13.598Z,48.18
2016-03-02T06:13:13.648Z,48.47
2016-03-02T06:14:13.697Z,48.09
2016-03-02T06:15:13.731Z,48.28
2016-03-02T06:16:13.781Z,48.47
2016-03-02T06:17:13.845Z,48.28
2016-03-02T06:18:13.895Z,48.09
2016-03-02T06:19:13.945Z,48.28
2016-03-02T06:20:13.994Z,48.47
2016-03-02T06:21:14.075Z,48.28
2016-03-02T06:22:14.094Z,48.38
2016-03-02T06:23:14.158Z,48.28
2016-03-02T06:24:14.192Z,48.38
2016-03-02T06:25:14.242Z,47.89
2016-03-02T06:26:14.307Z,47.89
2016-03-02T06:27:14.341Z,47.61
2016-03-02T06:28:14.406Z,47.89
2016-03-02T06:29:14.456Z,48.28
2016-03-02T06:30:14.505Z,48.28
2016-03-02T06:31:14.555Z,48.47
2016-03-02T06:32:14.605Z,48.18
2016-03-02T06:33:14.654Z,48.38
2016-03-02T06:34:14.704Z,48.28
2016-03-02T06:35:14.754Z,48.28
2016-03-02T06:36:14.803Z,48.09
2016-03-02T06:37:14.852Z,48.09
2016-03-02T06:38:14.902Z,48.38
2016-03-02T06:39:14.968Z,48.38
2016-03-02T06:40:15.017Z,48.28
2016-03-02T06:41:15.051Z,48.18
2016-03-02T06:42:15.100Z,48.09
2016-03-02T06:43:15.151Z,48.85
2016-03-02T06:44:15.200Z,48.85
2016-03-02T06:45:15.248Z,48.28
2016-03-02T06:46:15.314Z,48.18
2016-03-02T06:47:15.364Z,48.38
2016-03-02T06:48:15.398Z,48.85
2016-03-02T06:49:15.464Z,48.18
2016-03-02T06:50:15.512Z,48.28
2016-03-02T06:51:15.577Z,48.28
2016-03-02T06:52:15.611Z,48.28
2016-03-02T06:53:15.661Z,48.18
2016-03-02T06:54:15.711Z,48.28
2016-03-02T06:55:15.761Z,48.85
2016-03-02T06:56:15.810Z,48.18
2016-03-02T06:57:15.860Z,48.28
2016-03-02T06:58:15.908Z,48.38
2016-03-02T06:59:15.975Z,47.99
2016-03-02T07:00:16.024Z,48.38
2016-03-02T07:01:16.058Z,48.18
2016-03-02T07:02:16.107Z,48.85
2016-03-02T07:03:16.158Z,48.28
2016-03-02T07:04:16.222Z,48.66
2016-03-02T07:05:16.256Z,48.66
2016-03-02T07:06:16.415Z,48.75
2016-03-02T07:07:16.371Z,48.18
2016-03-02T07:08:16.405Z,48.18
2016-03-02T07:09:16.471Z,48.18
2016-03-02T07:10:16.520Z,48.66
2016-03-02T07:11:16.569Z,48.66
2016-03-02T07:12:16.618Z,47.22
2016-03-02T07:13:16.685Z,46.36
2016-03-02T07:14:16.718Z,45.89
2016-03-02T07:15:16.783Z,45.12
2016-03-02T07:16:16.818Z,45.19
2016-03-02T07:17:16.867Z,46.34
2016-03-02T07:18:16.917Z,46.12
2016-03-02T07:19:16.965Z,45.84
2016-03-02T07:20:17.031Z,46.41
2016-03-02T07:21:17.081Z,47.18
2016-03-02T07:22:17.114Z,47.06
2016-03-02T07:23:17.180Z,46.87
2016-03-02T07:24:17.229Z,47.25
2016-03-02T07:25:17.279Z,48.21
2016-03-02T07:26:17.313Z,48.21
2016-03-02T07:27:17.379Z,48.11
2016-03-02T07:28:17.428Z,48.3
2016-03-02T07:29:17.478Z,48.21
2016-03-02T07:30:17.559Z,48.21
2016-03-02T07:31:17.577Z,48.3
2016-03-02T07:32:17.626Z,48.11
2016-03-02T07:33:17.675Z,48.88
2016-03-02T07:34:17.726Z,48.13
2016-03-02T07:35:17.776Z,48.39
2016-03-02T07:36:17.872Z,48.23
2016-03-02T07:37:17.875Z,48.23
2016-03-02T07:38:17.924Z,48.23
2016-03-02T07:39:17.989Z,48.33
2016-03-02T07:40:18.022Z,48.23
2016-03-02T07:41:18.072Z,48.23
2016-03-02T07:42:18.138Z,48.42
2016-03-02T07:43:18.171Z,48.42
2016-03-02T07:44:18.238Z,48.42
2016-03-02T07:45:18.286Z,48.42
2016-03-02T07:46:18.336Z,48.23
2016-03-02T07:47:18.385Z,48.13
2016-03-02T07:48:18.419Z,48.8
2016-03-02T07:49:18.485Z,48.23
2016-03-02T07:50:18.550Z,48.42
2016-03-02T07:51:18.646Z,48.33
2016-03-02T07:52:18.633Z,48.33
2016-03-02T07:53:18.682Z,48.52
2016-03-02T07:54:18.732Z,48.13
2016-03-02T07:55:18.766Z,48.13
2016-03-02T07:56:18.815Z,48.33
2016-03-02T07:57:18.881Z,48.52
2016-03-02T07:58:18.931Z,48.61
2016-03-02T07:59:18.964Z,48.52
2016-03-02T08:00:19.030Z,48.71
2016-03-02T08:01:19.079Z,48.52
2016-03-02T08:02:19.113Z,48.52
2016-03-02T08:03:19.178Z,48.83
2016-03-02T08:04:19.228Z,48.73
2016-03-02T08:05:19.278Z,48.71
2016-03-02T08:06:19.906Z,48.61
2016-03-02T08:07:19.377Z,48.8
2016-03-02T08:08:19.427Z,48.25
2016-03-02T08:09:19.476Z,48.23
2016-03-02T08:10:19.525Z,48.44
2016-03-02T08:11:19.575Z,48.25
2016-03-02T08:12:19.625Z,48.16
2016-03-02T08:13:19.675Z,48.25
2016-03-02T08:14:19.724Z,48.25
2016-03-02T08:15:19.773Z,48.73
2016-03-02T08:16:19.823Z,48.73
2016-03-02T08:17:19.872Z,48.83
2016-03-02T08:18:19.922Z,48.93
2016-03-02T08:19:19.972Z,48.25
2016-03-02T08:20:20.022Z,48.83
2016-03-02T08:21:20.133Z,48.25
2016-03-02T08:22:20.121Z,47.97
2016-03-02T08:23:20.185Z,48.44
2016-03-02T08:24:20.235Z,48.44
2016-03-02T08:25:20.268Z,48.44
2016-03-02T08:26:20.350Z,48.16
2016-03-02T08:27:20.368Z,48.25
2016-03-02T08:28:20.418Z,48.16
2016-03-02T08:29:20.484Z,48.44
2016-03-02T08:30:20.548Z,48.44
2016-03-02T08:31:20.582Z,48.44
2016-03-02T08:32:20.617Z,48.44
2016-03-02T08:33:20.697Z,48.25
2016-03-02T08:34:20.731Z,48.25
2016-03-02T08:35:20.780Z,47.58
2016-03-02T08:36:20.861Z,46.82
2016-03-02T08:37:20.854Z,45.96
2016-03-02T08:38:20.905Z,45.67
2016-03-02T08:39:20.955Z,46.34
2016-03-02T08:40:20.958Z,46.03
2016-03-02T08:41:21.008Z,45.94
2016-03-02T08:42:21.172Z,46.22
2016-03-02T08:43:21.090Z,47.18
2016-03-02T08:44:21.135Z,46.87
2016-03-02T08:45:21.179Z,47.16
2016-03-02T08:46:21.207Z,47.32
2016-03-02T08:47:21.269Z,47.99
2016-03-02T08:48:21.333Z,48.47
2016-03-02T08:49:21.380Z,48.47
2016-03-02T08:50:21.429Z,48.66
2016-03-02T08:51:21.476Z,49.43
2016-03-02T08:52:21.508Z,49.62
2016-03-02T08:53:21.572Z,49.62
2016-03-02T08:54:21.606Z,49.98
2016-03-02T08:55:21.654Z,50.55
2016-03-02T08:56:21.703Z,50.35
2016-03-02T08:57:21.752Z,50.64
2016-03-02T08:58:21.803Z,50.35
2016-03-02T08:59:21.852Z,51.03
2016-03-02T09:00:21.901Z,50.93
2016-03-02T09:01:21.951Z,51.21
2016-03-02T09:02:22.001Z,50.84
2016-03-02T09:03:22.049Z,50.93
2016-03-02T09:04:22.099Z,50.93
2016-03-02T09:05:22.149Z,51.48
2016-03-02T09:06:22.199Z,51
2016-03-02T09:07:22.249Z,51.95
2016-03-02T09:08:22.298Z,52.05
2016-03-02T09:09:22.348Z,51.95
2016-03-02T09:10:22.397Z,51.95
2016-03-02T09:11:22.431Z,52.08
2016-03-02T09:12:22.481Z,51.41
2016-03-02T09:13:22.545Z,51.12
2016-03-02T09:14:22.595Z,51.21
2016-03-02T09:15:22.629Z,51.05
2016-03-02T09:16:22.678Z,51.53
2016-03-02T09:17:22.729Z,51.34
2016-03-02T09:18:22.794Z,51.05
2016-03-02T09:19:22.843Z,51.05
2016-03-02T09:20:22.893Z,50.95
2016-03-02T09:21:22.927Z,51.34
2016-03-02T09:22:22.976Z,50.79
2016-03-02T09:23:23.025Z,50.5
2016-03-02T09:24:23.075Z,50.5
2016-03-02T09:25:23.141Z,50.05
2016-03-02T09:26:23.175Z,50.62
2016-03-02T09:27:23.224Z,50.15
2016-03-02T09:28:23.274Z,50.15
2016-03-02T09:29:23.324Z,50.15
2016-03-02T09:30:23.373Z,50.05
2016-03-02T09:31:23.438Z,49.76
2016-03-02T09:32:23.472Z,49.95
2016-03-02T09:33:23.521Z,49.76
2016-03-02T09:34:23.571Z,49.86
2016-03-02T09:35:23.621Z,49.21
2016-03-02T09:36:23.670Z,49.5
2016-03-02T09:37:23.721Z,49.11
2016-03-02T09:38:23.769Z,49.21
2016-03-02T09:39:23.819Z,48.83
2016-03-02T09:40:23.869Z,48.73
2016-03-02T09:41:23.762Z,48.73
2016-03-02T09:42:23.999Z,48.83
2016-03-02T09:43:24.017Z,48.93
2016-03-02T09:44:24.067Z,48.66
2016-03-02T09:45:24.131Z,48.75
2016-03-02T09:46:24.165Z,48.73
2016-03-02T09:47:24.215Z,48.64
2016-03-02T09:48:24.264Z,48.66
2016-03-02T09:49:24.314Z,48.57
2016-03-02T09:50:24.364Z,48.66
2016-03-02T09:51:24.414Z,48.75
2016-03-02T09:52:24.464Z,48.09
2016-03-02T09:53:24.528Z,48.09
2016-03-02T09:54:23.812Z,48.75
2016-03-02T09:55:24.627Z,48.28
2016-03-02T09:56:24.661Z,47.8
2016-03-02T09:57:24.710Z,44.83
2016-03-02T09:58:24.760Z,43.39
2016-03-02T09:59:24.810Z,42.72
2016-03-02T10:00:24.860Z,43.1
2016-03-02T10:01:24.909Z,43.18
2016-03-02T10:02:24.975Z,43.56
2016-03-02T10:03:25.008Z,43.63
2016-03-02T10:04:25.074Z,44.02
2016-03-02T10:05:25.107Z,43.44
2016-03-02T10:06:25.157Z,43.92
2016-03-02T10:07:25.222Z,43.8
2016-03-02T10:08:25.256Z,43.33
2016-03-02T10:09:25.322Z,43.33
2016-03-02T10:10:25.355Z,44.19
2016-03-02T10:11:25.421Z,43.98
2016-03-02T10:12:25.470Z,44.17
2016-03-02T10:13:25.520Z,44.74
2016-03-02T10:14:25.553Z,45.12
2016-03-02T10:15:25.634Z,44.65
2016-03-02T10:16:25.653Z,44.65
2016-03-02T10:17:25.717Z,43.98
2016-03-02T10:18:25.751Z,44.93
2016-03-02T10:19:25.817Z,44.45
2016-03-02T10:20:25.851Z,44.07
2016-03-02T10:21:25.917Z,43.98
2016-03-02T10:22:25.950Z,44.36
2016-03-02T10:23:26.015Z,43.98
2016-03-02T10:24:26.065Z,44.62
2016-03-02T10:25:26.145Z,43.95
2016-03-02T10:26:26.164Z,44.43
2016-03-02T10:27:26.213Z,44.53
2016-03-02T10:28:26.263Z,44.81
2016-03-02T10:29:26.297Z,44.62
2016-03-02T10:30:26.378Z,45.87
2016-03-02T10:31:26.412Z,44.91
2016-03-02T10:32:26.461Z,44.34
2016-03-02T10:33:26.511Z,44.72
2016-03-02T10:34:26.591Z,45.1
2016-03-02T10:35:26.610Z,45.1
2016-03-02T10:36:26.659Z,45.67
2016-03-02T10:37:26.710Z,44.62
2016-03-02T10:38:26.743Z,44.43
2016-03-02T10:39:26.793Z,44.62
2016-03-02T10:40:26.843Z,44.53
2016-03-02T10:41:26.893Z,44.05
2016-03-02T10:42:26.941Z,45.1
2016-03-02T10:43:26.976Z,44.91
2016-03-02T10:44:27.040Z,44.43
2016-03-02T10:45:27.090Z,44.15
2016-03-02T10:46:27.156Z,44.62
2016-03-02T10:47:27.189Z,44.05
2016-03-02T10:48:27.223Z,43.93
2016-03-02T10:49:27.273Z,44.02
2016-03-02T10:50:27.337Z,44.51
2016-03-02T10:51:27.403Z,45.27
2016-03-02T10:52:27.437Z,44.6
2016-03-02T10:53:27.486Z,44.31
2016-03-02T10:54:27.520Z,44.41
2016-03-02T10:55:27.586Z,45.37
2016-03-02T10:56:27.636Z,44.98
2016-03-02T10:57:27.701Z,45.46
2016-03-02T10:58:27.719Z,45.17
2016-03-02T10:59:27.784Z,46.22
2016-03-02T11:00:27.833Z,45.94
2016-03-02T11:01:27.867Z,45.65
2016-03-02T11:02:27.933Z,45.84
2016-03-02T11:03:27.966Z,46.13
2016-03-02T11:04:28.017Z,47.11
2016-03-02T11:05:28.066Z,46.15
2016-03-02T11:06:28.115Z,45.77
2016-03-02T11:07:28.181Z,46.44
2016-03-02T11:08:28.230Z,45.87
2016-03-02T11:09:28.279Z,46.82
2016-03-02T11:10:28.329Z,47.01
2016-03-02T11:11:28.363Z,46.72
2016-03-02T11:12:28.444Z,47.58
2016-03-02T11:13:28.462Z,47.68
2016-03-02T11:14:28.512Z,47.71
2016-03-02T11:15:28.562Z,47.52
2016-03-02T11:16:28.595Z,47.32
2016-03-02T11:17:28.660Z,47.34
2016-03-02T11:18:28.695Z,47.25
2016-03-02T11:19:28.776Z,46.87
2016-03-02T11:20:28.793Z,46.87
2016-03-02T11:21:28.843Z,47.06
2016-03-02T11:22:28.892Z,46.03
2016-03-02T11:23:28.973Z,45.84
2016-03-02T11:24:28.992Z,45.94
2016-03-02T11:25:29.042Z,45.94
2016-03-02T11:26:29.092Z,46.41
2016-03-02T11:27:29.172Z,45.84
2016-03-02T11:28:29.190Z,46.05
2016-03-02T11:29:29.271Z,46.34
2016-03-02T11:30:29.289Z,45.96
2016-03-02T11:31:29.339Z,45.86
2016-03-02T11:32:29.405Z,45.48
2016-03-02T11:33:29.469Z,45.38
2016-03-02T11:34:30.066Z,45.67
2016-03-02T11:35:29.538Z,45.29
2016-03-02T11:36:29.586Z,43.27
2016-03-02T11:37:29.621Z,42.22
2016-03-02T11:38:29.671Z,42.22
2016-03-02T11:39:29.736Z,41.65
2016-03-02T11:40:29.832Z,41.46
2016-03-02T11:41:29.818Z,41.07
2016-03-02T11:42:29.884Z,40.95
2016-03-02T11:43:29.918Z,42.3
2016-03-02T11:44:29.968Z,40.95
2016-03-02T11:45:30.018Z,42.68
2016-03-02T11:46:30.067Z,42.49
2016-03-02T11:47:30.132Z,42.2
2016-03-02T11:48:30.165Z,42.3
2016-03-02T11:49:30.215Z,41.82
2016-03-02T11:50:30.265Z,42.18
2016-03-02T11:51:30.314Z,41.41
2016-03-02T11:52:30.365Z,41.51
2016-03-02T11:53:30.429Z,41.41
2016-03-02T11:54:30.464Z,41.8
2016-03-02T11:55:30.512Z,40.75
2016-03-02T11:56:30.562Z,40.84
2016-03-02T11:57:30.612Z,41.03
2016-03-02T11:58:30.661Z,41.41
2016-03-02T11:59:30.711Z,42.08
2016-03-02T12:00:30.761Z,42.18
2016-03-02T12:01:30.810Z,42.27
2016-03-02T12:02:30.861Z,42.47
2016-03-02T12:03:30.925Z,43.63
2016-03-02T12:04:30.958Z,43.92
2016-03-02T12:05:31.004Z,44.02
2016-03-02T12:06:31.070Z,43.54
2016-03-02T12:07:31.104Z,43.54
2016-03-02T12:08:31.154Z,43.73
2016-03-02T12:09:31.203Z,43.35
2016-03-02T12:10:31.253Z,43.85
2016-03-02T12:11:31.303Z,43.37
2016-03-02T12:12:31.367Z,43.47
2016-03-02T12:13:31.242Z,43.56
2016-03-02T12:14:31.450Z,43.47
2016-03-02T12:15:31.501Z,43.27
2016-03-02T12:16:31.550Z,43.56
2016-03-02T12:17:31.600Z,43.77
2016-03-02T12:18:31.649Z,43.68
2016-03-02T12:19:31.714Z,43.39
2016-03-02T12:20:31.605Z,43.49
2016-03-02T12:21:31.795Z,43.39
2016-03-02T12:22:31.845Z,43.39
2016-03-02T12:23:31.894Z,43.49
2016-03-02T12:24:31.960Z,43.3
2016-03-02T12:25:32.009Z,43.39
2016-03-02T12:26:32.043Z,43.39
2016-03-02T12:27:32.093Z,43.23
2016-03-02T12:28:32.141Z,43.39
2016-03-02T12:29:32.191Z,43.39
2016-03-02T12:30:32.241Z,43.49
2016-03-02T12:31:32.290Z,43.51
2016-03-02T12:32:32.340Z,43.23
2016-03-02T12:33:32.405Z,43.41
2016-03-02T12:34:32.455Z,43.6
2016-03-02T12:35:32.489Z,43.32
2016-03-02T12:36:32.555Z,43.32
2016-03-02T12:37:32.587Z,43.13
2016-03-02T12:38:32.669Z,43.51
2016-03-02T12:39:32.704Z,43.32
2016-03-02T12:40:32.737Z,43.41
2016-03-02T12:41:32.801Z,43.32
2016-03-02T12:42:32.867Z,43.32
2016-03-02T12:43:32.901Z,43.32
2016-03-02T12:44:32.951Z,42.94
2016-03-02T12:45:33.000Z,42.94
2016-03-02T12:46:33.050Z,43.05
2016-03-02T12:47:32.350Z,43.05
2016-03-02T12:48:33.150Z,42.96
2016-03-02T12:49:33.198Z,43.24
2016-03-02T12:50:33.264Z,43.32
2016-03-02T12:51:33.298Z,43.32
2016-03-02T12:52:33.348Z,43.32
2016-03-02T12:53:33.413Z,42.96
2016-03-02T12:54:33.446Z,43.24
2016-03-02T12:55:33.496Z,43.24